My Meet Scores
Natalie Drnec, Gym Kinetics Gymnastics - MyMeetScores.com
Top100 | Top Teams | Upcoming Meets | Completed Meets | Latest | Add Scores | Help| Support | Bookmark and Share

Natalie Drnec, Gym Kinetics Gymnastics
Personal Bests
LevelVault BarsBeamFloorAA
39.6509.400 9.5009.80037.900
49.1009.425 9.4509.62537.150
59.1759.150 9.5009.65037.225
79.5008.800 9.6509.65036.700
Meet Scores
Date Meet Team Session Level Division Vault Bars Beam Floor AA
2018-03-23 Illinois Level 7 & 8 State Competition Gym Kinetics Gymnastics 09 7 Jr C 9.425 6 7.250 22 9.650 2 9.650 1 35.975 15
2018-02-23 Kinetic Classic Gym Kinetics Gymnastics 1 7 Younger 8.950 49T 8.300 53T 9.600 1 9.300 11T 36.150 29T
2018-02-09 Arizona Sunrays Classic Rock Invitational Gym Kinetics Gymnastics B03 7 JrD 9.300 3 8.800 6T 9.350 1 9.225 3 36.675 3
2018-02-03 Midwest Games Gym Kinetics Gymnastics 7 7 SR 9.325 7* 8.250 11 9.600 2 9.450 4 36.625 7T
2018-01-19 2018 Bravo Classic Gym Kinetics Gymnastics 3A 7 Jr 9.050 11T 8.775 6T 9.275 7 9.375 3T 36.475 7
2017-12-15 2017 Aspire Classic Gym Kinetics Gymnastics 2 7 Sr A 9.500 8 8.200 16 9.475 3 9.525 1 36.700 9
2017-03-30 2017 Illinois Level 3 & 5 State Gym Kinetics Gymnastics All 5 Sr B 8.950 16 7.755 21 9.375 7 9.550 1 35.630 12
2017-02-24 Kinetic Classic Gym Kinetics Gymnastics 6 5 All Ages 9.175 9 8.950 11T 9.450 2 9.650 1 37.225 2
2017-02-09 Hal's Harley-Davidson Invite Gym Kinetics Gymnastics O09 5 11B yrs 8.675 6 8.850 1 9.500 2 9.300 2 36.325 1
2017-01-13 St Jude Benefit Meet Gym Kinetics Gymnastics 1A 5 Sr A 8.725 7 9.150 1 9.175 8 9.200 3 36.250 3
2016-12-16 2016 Aspire Classic Gym Kinetics Gymnastics 5 5 Older 8.750 11 8.850 6T 9.500 3 9.425 1 36.525 1T
2016-03-10 2016 Illinois Level 4 State Meet Gym Kinetics Gymnastics All 4 Jr-C 8.950 5 9.350 7 8.900 15 9.350 1 36.550 6
2016-02-20 Big Classic Gym Kinetics Gymnastics 2B 4 Child B 8.850 12T 9.175 8 9.300 5 9.025 7 36.350 7
2016-01-22 2016 Honkytonk Classic Gym Kinetics Gymnastics 04 4 Jr 9.100 4 9.425 6 9.000 6 9.625 1 37.150 2
2016-01-15 2016 Bravo Classic Gym Kinetics Gymnastics 5B 4 10+yrs 8.900 9T 9.175 8T 9.275 5 9.275 3 36.625 5
2015-12-04 2015 Ultimate Wish Classic Gym Kinetics Gymnastics 11A 4 All 8.600 22 9.050 16 9.025 16 9.350 3 26.675 67
2015-03-19 2015 Illinois Level 4 State Championship Gym Kinetics Gymnastics All 4 YouthC 9.000 12 8.700 18 9.450 5 9.450 7 36.600 14
2015-02-21 BIG Classic Gym Kinetics Gymnastics 6A 4 Child B 8.875 1 8.825 11 9.325 7 9.225 4 36.250 6
2015-01-23 King Arthur Invitational Gym Kinetics Gymnastics 5 4 JrB 8.800 6 8.700 12 8.950 9 9.175 7 35.625 10
2015-01-09 Legacy Elite Winter Classic 2015 Flipstar Gymnastics Academy 4B 4 Ch B 8.500 3T 8.700 8 8.750 7T 9.200 2 35.150 5
2014-03-07 Illinois Level 3 State Meet Gym Kinetics Gymnastics 7 3 Youth D 9.650 4 8.950 21 9.500 5 9.800 1 37.900 7
2014-02-15 BIG Dream Classic 2014 Gym Kinetics Gymnastics 6A 3 Child B 9.475 1 9.400 4 9.500 1 9.300 3 37.675 2
2014-01-17 2014 Bravo Classic Gym Kinetics Gymnastics 6B 3 8yrs 9.525 3 9.225 1T 9.325 2 9.150 1 37.225 2
2013-12-19 2013 Hawaiian Pineapple Classic Gym Kinetics Gymnastics A11 3 8 8.950 6T 9.400 1 9.400 2 9.400 1 37.150 1

www.lazysuits.com